createdAt,value
2022-08-22T00:00:44.153Z,7.35
2022-08-22T00:02:51.908Z,2.13
2022-08-22T00:03:05.878Z,8.16
2022-08-22T00:05:44.160Z,7.03
2022-08-22T00:10:44.151Z,8.3
2022-08-22T00:15:44.416Z,11.48
2022-08-22T00:20:44.163Z,10.81
2022-08-22T00:25:44.153Z,10
2022-08-22T00:30:44.157Z,9.64
2022-08-22T00:35:45.195Z,9.16
2022-08-22T00:40:44.177Z,7.15
2022-08-22T00:45:44.169Z,6.98
2022-08-22T00:50:44.169Z,7.26
2022-08-22T00:55:44.173Z,10.23
2022-08-22T01:00:44.183Z,8.97
2022-08-22T01:05:44.229Z,8.68
2022-08-22T01:10:44.236Z,9.68
2022-08-22T01:15:44.191Z,9.45
2022-08-22T01:20:44.227Z,9.46
2022-08-22T01:25:44.217Z,8.55
2022-08-22T01:30:44.198Z,8.78
2022-08-22T01:35:44.206Z,8.61
2022-08-22T01:40:47.525Z,9.6
2022-08-22T01:45:44.228Z,7.98
2022-08-22T01:50:44.243Z,9.63
2022-08-22T02:00:44.257Z,9.39
2022-08-22T02:05:44.278Z,9.57
2022-08-22T02:10:44.225Z,8.23
2022-08-22T02:15:44.226Z,7.69
2022-08-22T02:20:44.230Z,8.36
2022-08-22T02:25:44.241Z,8.34
2022-08-22T02:30:44.226Z,8.89
2022-08-22T02:35:44.222Z,10.33
2022-08-22T02:40:44.234Z,8.98
2022-08-22T02:45:44.263Z,8.58
2022-08-22T02:50:44.258Z,8.21
2022-08-22T02:55:44.269Z,8.68
2022-08-22T03:00:44.284Z,7.4
2022-08-22T03:05:44.246Z,8.54
2022-08-22T03:10:44.282Z,8.26
2022-08-22T03:15:48.416Z,6.88
2022-08-22T03:20:44.261Z,8.04
2022-08-22T03:25:44.267Z,9.36
2022-08-22T03:30:44.263Z,7.27
2022-08-22T03:35:44.262Z,7.13
2022-08-22T03:40:44.282Z,7.19
2022-08-22T03:45:44.266Z,6.75
2022-08-22T03:50:44.276Z,6.88
2022-08-22T03:55:44.283Z,6.92
2022-08-22T04:00:44.304Z,6.74
2022-08-22T04:05:44.288Z,6.35
2022-08-22T04:10:44.288Z,7.15
2022-08-22T04:15:44.285Z,6.71
2022-08-22T04:20:44.288Z,7.35
2022-08-22T04:25:44.298Z,7.23
2022-08-22T04:30:44.292Z,7.08
2022-08-22T04:35:44.316Z,6.65
2022-08-22T04:40:44.327Z,7.1
2022-08-22T04:45:44.328Z,7.01
2022-08-22T04:50:44.309Z,6.92
2022-08-22T04:55:44.332Z,7.34
2022-08-22T05:00:44.356Z,7.28
2022-08-22T05:05:44.345Z,6.82
2022-08-22T05:10:44.317Z,7.66
2022-08-22T05:15:44.340Z,8.3
2022-08-22T05:20:44.322Z,8.58
2022-08-22T05:25:44.357Z,8.11
2022-08-22T05:30:44.360Z,7.28
2022-08-22T05:35:48.649Z,7.06
2022-08-22T05:40:44.330Z,7.27
2022-08-22T05:45:44.328Z,7.64
2022-08-22T05:50:46.372Z,6.81
2022-08-22T05:55:44.382Z,8
2022-08-22T06:00:44.341Z,6.83
2022-08-22T06:05:44.349Z,8.37
2022-08-22T06:15:44.337Z,7.7
2022-08-22T06:20:44.385Z,7.11
2022-08-22T06:25:44.357Z,7.3
2022-08-22T06:30:44.388Z,6.89
2022-08-22T06:35:44.754Z,7.28
2022-08-22T06:40:44.369Z,6.91
2022-08-22T06:45:44.379Z,6.36
2022-08-22T06:50:44.374Z,6.3
2022-08-22T06:55:44.363Z,6.54
2022-08-22T07:00:46.627Z,8.49
2022-08-22T07:05:44.368Z,7.95
2022-08-22T07:10:44.387Z,6.4
2022-08-22T07:15:44.417Z,6.51
2022-08-22T07:20:44.386Z,6.79
2022-08-22T07:25:44.394Z,7.01
2022-08-22T07:30:44.392Z,5.52
2022-08-22T07:35:53.315Z,6.17
2022-08-22T07:40:44.399Z,5.76
2022-08-22T07:45:44.391Z,6.35
2022-08-22T07:50:44.415Z,7.53
2022-08-22T07:55:48.500Z,7.1
2022-08-22T08:00:44.444Z,6.17
2022-08-22T08:05:44.403Z,6.29
2022-08-22T08:10:44.421Z,6.55
2022-08-22T08:15:44.411Z,6.61
2022-08-22T08:20:44.452Z,6.44
2022-08-22T08:25:44.445Z,6.8
2022-08-22T08:30:44.420Z,4.88
2022-08-22T08:35:52.620Z,4.38
2022-08-22T08:40:44.428Z,4.97
2022-08-22T08:45:44.432Z,5.64
2022-08-22T08:50:44.434Z,4.65
2022-08-22T08:55:44.458Z,4.68
2022-08-22T09:00:44.509Z,4.19
2022-08-22T09:05:44.441Z,4.26
2022-08-22T09:10:44.449Z,3.89
2022-08-22T09:15:44.457Z,4.44
2022-08-22T09:20:44.456Z,4.24
2022-08-22T09:25:44.459Z,3.36
2022-08-22T09:30:44.489Z,4.43
2022-08-22T09:35:44.487Z,4.27
2022-08-22T09:40:44.468Z,4.06
2022-08-22T09:45:44.469Z,4.17
2022-08-22T09:50:44.510Z,4.38
2022-08-22T09:55:44.489Z,4.08
2022-08-22T10:00:44.526Z,4.57
2022-08-22T10:05:44.986Z,4.24
2022-08-22T10:10:44.519Z,3.85
2022-08-22T10:15:44.479Z,4.09
2022-08-22T10:20:44.732Z,3.98
2022-08-22T10:25:44.515Z,3.93
2022-08-22T10:30:44.489Z,3.82
2022-08-22T10:35:44.490Z,4.25
2022-08-22T10:40:44.508Z,3.69
2022-08-22T10:45:44.505Z,4.03
2022-08-22T10:50:44.496Z,3.72
2022-08-22T10:55:44.513Z,3.18
2022-08-22T11:00:46.288Z,3.55
2022-08-22T11:05:44.516Z,2.93
2022-08-22T11:10:44.540Z,3.22
2022-08-22T11:15:44.521Z,3.28
2022-08-22T11:20:44.554Z,3.07
2022-08-22T11:25:44.520Z,3.57
2022-08-22T11:30:44.941Z,2.94
2022-08-22T11:35:44.558Z,3.14
2022-08-22T11:40:44.544Z,2.9
2022-08-22T11:45:44.531Z,2.94
2022-08-22T11:50:44.554Z,2.6
2022-08-22T11:55:44.538Z,2.89
2022-08-22T12:00:44.556Z,2.57
2022-08-22T12:05:44.587Z,2.48
2022-08-22T12:10:44.585Z,1.77
2022-08-22T12:15:44.561Z,2.06
2022-08-22T12:20:45.479Z,2.64
2022-08-22T12:30:44.570Z,2.57
2022-08-22T12:35:44.607Z,2.52
2022-08-22T12:40:44.575Z,2.19
2022-08-22T12:45:44.603Z,2.61
2022-08-22T12:50:44.621Z,2.49
2022-08-22T12:55:44.585Z,2.4
2022-08-22T13:00:44.682Z,2.57
2022-08-22T13:05:44.590Z,3.01
2022-08-22T13:10:44.715Z,2.92
2022-08-22T13:15:44.642Z,3.43
2022-08-22T13:20:44.602Z,3.04
2022-08-22T13:25:44.596Z,3.21
2022-08-22T13:30:44.600Z,3.16
2022-08-22T13:35:45.554Z,2.93
2022-08-22T13:40:44.609Z,2.6
2022-08-22T13:45:44.597Z,2.88
2022-08-22T13:50:53.245Z,2.56
2022-08-22T13:55:44.612Z,2.49
2022-08-22T14:00:48.629Z,3.11
2022-08-22T14:05:44.606Z,2.84
2022-08-22T14:10:45.502Z,2.59
2022-08-22T14:15:45.143Z,2.62
2022-08-22T14:20:44.665Z,2.72
2022-08-22T14:25:44.663Z,3.24
2022-08-22T14:30:44.624Z,3.45
2022-08-22T14:35:44.670Z,3.67
2022-08-22T14:40:44.641Z,2.9
2022-08-22T14:45:44.635Z,2.77
2022-08-22T14:50:44.648Z,3.02
2022-08-22T14:55:44.650Z,3.31
2022-08-22T15:00:44.926Z,3
2022-08-22T15:05:45.108Z,2.94
2022-08-22T15:10:44.661Z,3.45
2022-08-22T15:15:49.600Z,3.5
2022-08-22T15:20:45.322Z,3.33
2022-08-22T15:25:46.957Z,3.12
2022-08-22T15:30:44.835Z,2.96
2022-08-22T15:35:44.685Z,3.61
2022-08-22T15:40:45.666Z,3.64
2022-08-22T15:45:44.672Z,4.03
2022-08-22T15:50:44.686Z,3.56
2022-08-22T15:55:44.677Z,3.81
2022-08-22T16:00:45.019Z,3.55
2022-08-22T16:05:44.727Z,3.75
2022-08-22T16:10:44.700Z,3.21
2022-08-22T16:15:44.698Z,3.44
2022-08-22T16:20:44.718Z,3.52
2022-08-22T16:25:44.703Z,3.46
2022-08-22T16:30:44.702Z,3.48
2022-08-22T16:35:44.725Z,3.76
2022-08-22T16:40:44.720Z,3.59
2022-08-22T16:45:44.709Z,3.5
2022-08-22T16:50:44.729Z,3.47
2022-08-22T16:55:44.743Z,3.27
2022-08-22T17:00:44.748Z,3.56
2022-08-22T17:05:44.725Z,3.45
2022-08-22T17:10:44.727Z,3.52
2022-08-22T17:15:44.721Z,3.84
2022-08-22T17:20:44.736Z,4.05
2022-08-22T17:25:44.784Z,4.24
2022-08-22T17:30:44.733Z,4.24
2022-08-22T17:35:44.760Z,4.18
2022-08-22T17:40:44.742Z,4.07
2022-08-22T17:45:44.771Z,4.13
2022-08-22T17:50:44.748Z,4.37
2022-08-22T17:55:44.766Z,4.56
2022-08-22T18:00:44.756Z,5.29
2022-08-22T18:05:44.758Z,5.99
2022-08-22T18:10:44.749Z,5.6
2022-08-22T18:15:44.755Z,5.29
2022-08-22T18:20:44.795Z,5.26
2022-08-22T18:25:44.770Z,5.44
2022-08-22T18:30:44.800Z,4.96
2022-08-22T18:35:44.802Z,5.27
2022-08-22T18:40:45.539Z,4.75
2022-08-22T18:45:44.867Z,4.49
2022-08-22T18:50:44.784Z,4.57
2022-08-22T18:55:44.796Z,4.19
2022-08-22T19:00:44.786Z,4.24
2022-08-22T19:05:44.782Z,4.44
2022-08-22T19:10:44.795Z,4.27
2022-08-22T19:15:44.798Z,4.16
2022-08-22T19:20:44.796Z,3.81
2022-08-22T19:25:44.809Z,3.88
2022-08-22T19:30:44.811Z,3.9
2022-08-22T19:35:44.808Z,3.9
2022-08-22T19:40:44.841Z,3.96
2022-08-22T19:45:44.814Z,3.91
2022-08-22T19:50:44.844Z,3.95
2022-08-22T19:55:44.841Z,4.07
2022-08-22T20:00:44.844Z,4.03
2022-08-22T20:05:44.822Z,4.05
2022-08-22T20:10:44.822Z,4.12
2022-08-22T20:15:44.888Z,4.27
2022-08-22T20:20:44.857Z,4.41
2022-08-22T20:25:44.858Z,4.53
2022-08-22T20:30:44.890Z,4.58
2022-08-22T20:35:44.843Z,5.82
2022-08-22T20:40:55.718Z,4.66
2022-08-22T20:45:44.852Z,4.56
2022-08-22T20:50:44.842Z,4.49
2022-08-22T20:55:44.874Z,4.47
2022-08-22T21:00:44.883Z,4.54
2022-08-22T21:05:44.856Z,4.83
2022-08-22T21:10:44.848Z,4.68
2022-08-22T21:15:44.874Z,4.55
2022-08-22T21:20:44.862Z,4.52
2022-08-22T21:25:44.901Z,4.57
2022-08-22T21:30:47.188Z,4.84
2022-08-22T21:35:44.863Z,4.71
2022-08-22T21:40:44.875Z,5.43
2022-08-22T21:45:44.867Z,5.49
2022-08-22T21:50:44.873Z,4.87
2022-08-22T21:55:44.887Z,4.94
2022-08-22T22:00:48.985Z,4.82
2022-08-22T22:05:44.885Z,5.02
2022-08-22T22:10:44.888Z,5.12
2022-08-22T22:15:44.898Z,5.21
2022-08-22T22:20:44.896Z,5.07
2022-08-22T22:25:44.896Z,5.14
2022-08-22T22:30:44.909Z,5.15
2022-08-22T22:35:44.889Z,5.8
2022-08-22T22:40:44.904Z,5.44
2022-08-22T22:45:44.909Z,5.43
2022-08-22T22:50:44.905Z,5.81
2022-08-22T23:00:44.947Z,5.27
2022-08-22T23:05:44.921Z,5.15
2022-08-22T23:10:44.945Z,4.98
2022-08-22T23:15:44.948Z,4.83
2022-08-22T23:20:44.943Z,5.09
2022-08-22T23:25:44.932Z,5.54
2022-08-22T23:30:44.931Z,5.56
2022-08-22T23:35:44.938Z,5.45
2022-08-22T23:40:44.930Z,5.38
2022-08-22T23:45:44.941Z,5.24
2022-08-22T23:50:44.952Z,5.37
2022-08-22T23:55:44.983Z,5.21
